Racecast

4A Region 5 XC Championships 2012

Elmwood Golf Course · 5000m · Girls · Varsity · 2012-10-18 · CO

Course difficulty: +0.020

Race-day weather: 48°F · wind 21 mph · humidity 21%

View full meet →

Team scores

Place Team Points 12345 67
1 Coronado (CO) 27 3 4 5 7 8 9 12
2 Pueblo South (CO) 80 2 15 17 19 27 35 42
3 Cheyenne Mountain (CO) 90 10 16 20 21 23 31 37
4 Woodland Park (CO) 94 11 14 18 25 26 50 52
5 Canon City (CO) 125 1 24 32 33 36 47 66
6 Pueblo West (CO) 142 6 22 28 30 56 58 61
7 Pueblo Centennial (CO) 170 13 34 38 39 45 62 64
8 Pueblo County (CO) 227 29 41 43 55 59 67 69
9 Mesa Ridge (CO) 229 40 44 46 49 51 60 63
10 Pueblo East (CO) 277 48 53 54 57 65 68 70

As scored by the meet.

Results

Place Athlete Grade School Time Rating Points
1 Aubrey Templeton (nee Till) 10 Canon City (CO) 1 19:17 136.4 1
2 Jessica Kleven 11 Pueblo South (CO) 1 19:28 135.1 2
3 Gabby Roth 10 Coronado (CA) 1 19:38 PR 133.9 3
4 Lauren Akers 11 Coronado (CA) 2 19:55 132.0 4
5 Sylvia Hayes 12 Coronado (CA) 3 19:59 131.6 5
6 Darby Spence 11 Pueblo West (CO) 1 20:02 PR 131.3 6
7 Shannon Young 12 Coronado (CA) 4 20:08 130.6 7
8 Olivia Babeu 10 Coronado (CA) 5 20:20 129.3 8
9 Kristen Hernandez 11 Coronado (CA) 6 20:32 128.1 9
10 Nell Crosby 11 Cheyenne Mountain (CO) 1 20:39 127.3 10
11 Kim Lucero 12 Pueblo Central (CO) 1 20:41 127.1
12 Savanah Ebhert 11 Woodland Park (CA) 1 20:43 126.9 11
13 Madeline Boehlke 12 Coronado (CA) 7 20:47 126.5 12
14 Emily Perez 10 Pueblo Centennial (CO) 1 20:49 126.3 13
15 Michaela McDonough 11 Woodland Park (CA) 2 20:49 126.3 14
16 Liz Akers 11 Coronado (CA) 8 20:55 125.7
17 Taylor Lopez-Cepero 12 Pueblo South (CO) 2 21:01 125.1 15
18 Madison Lambros 9 Cheyenne Mountain (CO) 2 21:05 124.7 16
19 Chloe Boehlke 12 Coronado (CA) 9 21:07 124.5
20 Kaylene Khosla 9 Pueblo South (CO) 3 21:13 PR 123.9 17
21 Lexi Harrison 10 Woodland Park (CA) 3 21:20 123.3 18
22 Kaitlyn George 10 Pueblo South (CO) 4 21:20 PR 123.3 19
23 Sierra Kenyon 11 Cheyenne Mountain (CO) 3 21:21 123.2 20
24 Hailey Geizer 11 Cheyenne Mountain (CO) 4 21:24 122.9 21
25 Susan Marshall 11 Pueblo West (CO) 2 21:30 122.3 22
26 Veronica Brtek 9 Cheyenne Mountain (CO) 5 21:36 121.7 23
27 Shea Trujillo 10 Canon City (CO) 2 21:51 PR 120.3 24
28 Megan Dillinger 12 Woodland Park (CA) 4 21:54 120.1 25
29 Anne Fisher 11 Woodland Park (CA) 5 21:55 120.0 26
30 Tanisha Day 11 Pueblo South (CO) 5 21:56 PR 119.9 27
31 Kylie Velez 12 Pueblo West (CO) 3 21:59 PR 119.6 28
32 Lena Garrison 10 Pueblo County (CO) 1 22:00 119.5 29
33 Christen Leedom 10 Pueblo West (CO) 4 22:01 PR 119.4 30
34 Margaret Sheahan 11 Cheyenne Mountain (CO) 6 22:03 119.3 31
35 Amanda Tappe 12 Canon City (CO) 3 22:09 118.7 32
36 Riley Valentine 10 Canon City (CO) 4 22:09 118.7 33
37 Jorie Anaya 9 Pueblo Centennial (CO) 2 22:11 118.5 34
38 Gabrielle Rhode 10 Pueblo South (CO) 6 22:28 117.0 35
39 Anna Goodin 10 Canon City (CO) 5 22:28 PR 117.0 36
40 Emily Rychener 10 Cheyenne Mountain (CO) 7 22:44 115.7 37
41 Rikki Falsetto 10 Pueblo Centennial (CO) 3 22:51 115.1 38
42 Sarah Mize 12 Pueblo Centennial (CO) 4 22:55 114.8 39
43 Samantha Czosnyka 10 Mesa Ridge (CO) 1 22:56 PR 114.7 40
44 Abby Simpson 12 Pueblo County (CO) 2 23:03 114.1 41
45 Kayleigh Shinn 11 Pueblo South (CO) 7 23:07 113.8 42
46 Katherine Pattee 12 Cheyenne Mountain (CO) 8 23:08 113.7
47 Maggie Venegas 12 Pueblo County (CO) 3 23:09 113.6 43
48 Kesira Rogan 11 Mesa Ridge (CO) 2 23:15 113.1 44
49 Angelika Barola 12 Pueblo Centennial (CO) 5 23:16 113.0 45
50 Patty Vasquez 12 Mesa Ridge (CO) 3 23:16 113.0 46
51 Cassandra Giammo 11 Canon City (CO) 6 23:17 112.9 47
52 Emily Waggener 11 Pueblo East (CO) 1 23:26 112.2 48
53 Misti Swancutt 10 Mesa Ridge (CO) 4 23:31 PR 111.8 49
54 Kelsey Seibel 12 Woodland Park (CA) 6 23:33 111.7 50
55 Rushael Garcia 10 Mesa Ridge (CO) 5 23:36 111.4 51
56 Gabrielle Gutierrez 11 Pueblo South (CO) 8 23:39 111.2
57 Danielle Pacheco 12 Widefield (CO) 1 23:41 111.0
58 Brianna Austin 11 Woodland Park (CA) 7 23:46 110.6 52
59 Larrisa Ruiz-Herrera 9 Pueblo East (CO) 2 23:54 110.0 53
60 Alayna Santiago 11 Pueblo East (CO) 3 23:57 109.8 54
61 Sarah Klomp 10 Pueblo South (CO) 9 24:02 109.4
62 Kylee Ezell 12 Pueblo County (CO) 4 24:03 PR 109.3 55
63 Rachel Jankelow 12 Pueblo West (CO) 5 24:09 108.9 56
64 Veronica Villegas 12 Pueblo East (CO) 4 24:10 SR 108.8 57
65 Alandra Lawrence 11 Widefield (CO) 2 24:11 108.7
66 Christina Aragon 9 Pueblo West (CO) 6 24:16 108.4 58
67 Joanna Waddell 9 Woodland Park (CA) 8 24:19 108.1
68 Savannah Kurowski 12 Pueblo County (CO) 5 24:24 107.8 59
69 Lafaith Gordon 12 Widefield (CO) 3 24:26 107.6
70 Raina Lopez 11 Mesa Ridge (CO) 6 24:28 107.5 60
71 Lilly Coble 10 Pueblo West (CO) 7 24:37 106.8 61
72 Devon Medina 11 Pueblo Centennial (CO) 6 24:38 106.8 62
73 Jade Murray 11 Mesa Ridge (CO) 7 24:42 106.5 63
74 Elizabeth Manguso 10 Pueblo Centennial (CO) 7 25:00 105.2 64
75 Abby Hart 12 Widefield (CO) 4 25:16 104.1
76 Cassie Yarbrough 12 Mesa Ridge (CO) 8 25:20 103.8
77 Kate Settipani 9 Pueblo Centennial (CO) 8 25:26 103.4
78 Catherine Otero 11 Pueblo East (CO) 5 25:31 103.0 65
79 Kaitlin Romano 12 Canon City (CO) 7 25:35 102.8 66
80 Jessica Miles 12 Pueblo County (CO) 6 25:40 102.5 67
81 Lizzy Robben 11 Pueblo Centennial (CO) 9 25:51 101.7
82 Alexandra Torres 12 Pueblo East (CO) 6 26:15 100.2 68
83 Haley Cisneros 12 Pueblo County (CO) 7 26:21 SR 99.8 69
84 Eleanor McDonald 10 Pueblo East (CO) 7 26:27 99.4 70
85 Rita Bauer 12 Mesa Ridge (CO) 9 26:31 99.2
86 Elena Bassan 11 Pueblo County (CO) 8 26:39 98.7
87 Jazzy Mae Torres 12 Pueblo County (CO) 9 26:45 98.3
88 Tyler Lopez 11 Pueblo East (CO) 8 27:07 97.0
89 Jacqueline Fresquez 12 Pueblo East (CO) 9 27:07 SR 97.0
Something wrong on this page? Report it →